NCAR-RAP Real-Time Weather Data

Output produced by METARs form (30 April 2017  15:04 UTC)
found at http://weather.rap.ucar.edu/surface/
 
Conditions at: KDAB observed 30 April 2017  14:53 UTC
Temperature: 27.8°C (82°F)
Dewpoint: 20.0°C (68°F) [RH = 63%]
Pressure (altimeter): 30.14 inches Hg (1020.7 mb)
[Sea-level pressure: 1020.5 mb]
Winds: from the SE (140 degrees) at 9 MPH (8 knots; 4.2 m/s)
gusting to 20 MPH (17 knots; 8.8 m/s)
Visibility: 10 or more miles (16+ km)
Ceiling: 3800 feet AGL
Clouds: scattered clouds at 2700 feet AGL
broken clouds at 3800 feet AGL
broken clouds at 5500 feet AGL
broken clouds at 25000 feet AGL
Present Weather: -RA  (light rain)
SOME DATA ABOVE MAY BE INACCURATE!!!
"$" is an indication the sensor requires maintenance
KDAB 301453Z 14008G17KT 10SM -RA SCT027 BKN038 BKN055 BKN250 28/20 A3014 RMK AO2 RAB50 SLP205 P0000 60000 T02780200 53003 $

Conditions at: KDAB observed 30 April 2017  14:11 UTC
Temperature: 26.7°C (80°F)
Dewpoint: 21.1°C (70°F) [RH = 71%]
Pressure (altimeter): 30.13 inches Hg (1020.4 mb)
Winds: from the SSE (160 degrees) at 9 MPH (8 knots; 4.2 m/s)
Visibility: 10 or more miles (16+ km)
Ceiling: 2300 feet AGL
Clouds: broken clouds at 2300 feet AGL
broken clouds at 3400 feet AGL
broken clouds at 7000 feet AGL
broken clouds at 25000 feet AGL
Present Weather:
SOME DATA ABOVE MAY BE INACCURATE!!!
"$" is an indication the sensor requires maintenance
KDAB 301411Z 16008KT 10SM BKN023 BKN034 BKN070 BKN250 27/21 A3013 RMK AO2 T02670211 $

Conditions at: KDAB observed 30 April 2017  13:53 UTC
Temperature: 26.1°C (79°F)
Dewpoint: 21.1°C (70°F) [RH = 74%]
Pressure (altimeter): 30.13 inches Hg (1020.4 mb)
[Sea-level pressure: 1020.1 mb]
Winds: from the SE (140 degrees) at 10 MPH (9 knots; 4.7 m/s)
gusting to 17 MPH (15 knots; 7.8 m/s)
Visibility: 10 or more miles (16+ km)
Ceiling: 3100 feet AGL
Clouds: scattered clouds at 1900 feet AGL
broken clouds at 3100 feet AGL
broken clouds at 5000 feet AGL
broken clouds at 15000 feet AGL
Present Weather:
SOME DATA ABOVE MAY BE INACCURATE!!!
"$" is an indication the sensor requires maintenance
KDAB 301353Z 14009G15KT 100V160 10SM SCT019 BKN031 BKN050 BKN150 BKN250 26/21 A3013 RMK AO2 SLP201 T02610211 $

Conditions at: KDAB observed 30 April 2017  13:36 UTC
Temperature: 26.1°C (79°F)
Dewpoint: 21.7°C (71°F) [RH = 77%]
Pressure (altimeter): 30.13 inches Hg (1020.4 mb)
Winds: from the SSE (150 degrees) at 10 MPH (9 knots; 4.7 m/s)
gusting to 18 MPH (16 knots; 8.3 m/s)
Visibility: 10 or more miles (16+ km)
Ceiling: 3000 feet AGL
Clouds: scattered clouds at 1800 feet AGL
broken clouds at 3000 feet AGL
broken clouds at 5000 feet AGL
broken clouds at 15000 feet AGL
Present Weather:
SOME DATA ABOVE MAY BE INACCURATE!!!
"$" is an indication the sensor requires maintenance
KDAB 301336Z 15009G16KT 10SM SCT018 BKN030 BKN050 BKN150 BKN250 26/22 A3013 RMK AO2 T02610217 $

Conditions at: KDAB observed 30 April 2017  13:24 UTC
Temperature: 26.1°C (79°F)
Dewpoint: 22.2°C (72°F) [RH = 79%]
Pressure (altimeter): 30.13 inches Hg (1020.4 mb)
Winds: from the SE (140 degrees) at 8 MPH (7 knots; 3.6 m/s)
gusting to 18 MPH (16 knots; 8.3 m/s)
Visibility: 10 or more miles (16+ km)
Ceiling: 1700 feet AGL
Clouds: broken clouds at 1700 feet AGL
broken clouds at 3000 feet AGL
broken clouds at 5000 feet AGL
broken clouds at 15000 feet AGL
Present Weather:
SOME DATA ABOVE MAY BE INACCURATE!!!
"$" is an indication the sensor requires maintenance
KDAB 301324Z 14007G16KT 10SM BKN017 BKN030 BKN050 BKN150 OVC250 26/22 A3013 RMK AO2 T02610222 $

Conditions at: KDAB observed 30 April 2017  12:53 UTC
Temperature: 25.0°C (77°F)
Dewpoint: 22.2°C (72°F) [RH = 84%]
Pressure (altimeter): 30.13 inches Hg (1020.4 mb)
[Sea-level pressure: 1020.1 mb]
Winds: variable direction winds at 6 MPH (5 knots; 2.6 m/s)
Visibility: 9 miles (14 km)
Ceiling: 3000 feet AGL
Clouds: scattered clouds at 1500 feet AGL
broken clouds at 3000 feet AGL
broken clouds at 6000 feet AGL
overcast cloud deck at 15000 feet AGL
Present Weather:
SOME DATA ABOVE MAY BE INACCURATE!!!
"$" is an indication the sensor requires maintenance
KDAB 301253Z VRB05KT 9SM SCT015 BKN030 BKN060 OVC150 25/22 A3013 RMK AO2 RAE1156 SLP201 P0000 T02500222 $

Conditions at: KDAB observed 30 April 2017  12:48 UTC
Temperature: 25.0°C (77°F)
Dewpoint: 22.0°C (72°F) [RH = 83%]
Pressure (altimeter): 30.13 inches Hg (1020.4 mb)
Winds: from the SE (140 degrees) at 6 MPH (5 knots; 2.6 m/s)
Visibility: 9 miles (14 km)
Ceiling: 3000 feet AGL
Clouds: scattered clouds at 1500 feet AGL
broken clouds at 3000 feet AGL
broken clouds at 6000 feet AGL
overcast cloud deck at 15000 feet AGL
Present Weather:
SOME DATA ABOVE MAY BE INACCURATE!!!
"$" is an indication the sensor requires maintenance
KDAB 301248Z 14005KT 9SM SCT015 BKN030 BKN060 OVC150 25/22 A3013 RMK AO2 RAE1156 P0000 $

Conditions at: KDAB observed 30 April 2017  12:00 UTC
Temperature: 24.4°C (76°F)
Dewpoint: 22.2°C (72°F) [RH = 88%]
Pressure (altimeter): 30.15 inches Hg (1021.1 mb)
Winds: variable direction winds at 6 MPH (5 knots; 2.6 m/s)
Visibility: 9 miles (14 km)
Ceiling: 1700 feet AGL
Clouds: broken clouds at 1700 feet AGL
broken clouds at 2900 feet AGL
broken clouds at 4200 feet AGL
overcast cloud deck at 25000 feet AGL
Present Weather:
SOME DATA ABOVE MAY BE INACCURATE!!!
"$" is an indication the sensor requires maintenance
KDAB 301200Z VRB05KT 9SM BKN017 BKN029 BKN042 OVC250 24/22 A3015 RMK AO2 RAE1156 VCSH N SE P0000 T02440222 $

Conditions at: KDAB observed 30 April 2017  11:53 UTC
Temperature: 24.4°C (76°F)
Dewpoint: 22.2°C (72°F) [RH = 88%]
Pressure (altimeter): 30.14 inches Hg (1020.7 mb)
[Sea-level pressure: 1020.7 mb]
Winds: variable direction winds at 6 MPH (5 knots; 2.6 m/s)
Visibility: 9 miles (14 km)
Ceiling: 3600 feet AGL
Clouds: few clouds at 1800 feet AGL
scattered clouds at 2300 feet AGL
broken clouds at 3600 feet AGL
broken clouds at 15000 feet AGL
Present Weather: -RA  (light rain)
SOME DATA ABOVE MAY BE INACCURATE!!!
"$" is an indication the sensor requires maintenance
KDAB 301153Z VRB05KT 9SM -RA FEW018 SCT023 BKN036 BKN150 BKN200 24/22 A3014 RMK AO2 RAB46 SLP207 P0000 60000 T02440222 51011 $

Conditions at: KDAB observed 30 April 2017  10:53 UTC
Temperature: 23.9°C (75°F)
Dewpoint: 21.7°C (71°F) [RH = 88%]
Pressure (altimeter): 30.14 inches Hg (1020.7 mb)
[Sea-level pressure: 1020.5 mb]
Winds: from the SE (130 degrees) at 7 MPH (6 knots; 3.1 m/s)
Visibility: 10 or more miles (16+ km)
Ceiling: 4000 feet AGL
Clouds: scattered clouds at 1900 feet AGL
scattered clouds at 3300 feet AGL
broken clouds at 4000 feet AGL
broken clouds at 15000 feet AGL
Present Weather:
SOME DATA ABOVE MAY BE INACCURATE!!!
"$" is an indication the sensor requires maintenance
KDAB 301053Z 13006KT 10SM SCT019 SCT033 BKN040 BKN150 BKN200 24/22 A3014 RMK AO2 RAB30E43 SLP205 P0000 T02390217 $

Conditions at: KDAB observed 30 April 2017  09:53 UTC
Temperature: 25.0°C (77°F)
Dewpoint: 21.7°C (71°F) [RH = 82%]
Pressure (altimeter): 30.12 inches Hg (1020.1 mb)
[Sea-level pressure: 1019.9 mb]
Winds: variable direction winds at 5 MPH (4 knots; 2.1 m/s)
Visibility: 10 or more miles (16+ km)
Ceiling: 7000 feet AGL
Clouds: scattered clouds at 2100 feet AGL
scattered clouds at 3900 feet AGL
broken clouds at 7000 feet AGL
Present Weather:
SOME DATA ABOVE MAY BE INACCURATE!!!
"$" is an indication the sensor requires maintenance
KDAB 300953Z VRB04KT 10SM SCT021 SCT039 BKN070 25/22 A3012 RMK AO2 SLP199 T02500217 $

Conditions at: KDAB observed 30 April 2017  08:53 UTC
Temperature: 24.4°C (76°F)
Dewpoint: 21.7°C (71°F) [RH = 85%]
Pressure (altimeter): 30.11 inches Hg (1019.7 mb)
[Sea-level pressure: 1019.6 mb]
Winds: variable direction winds at 6 MPH (5 knots; 2.6 m/s)
Visibility: 10 or more miles (16+ km)
Ceiling: at least 12,000 feet AGL
Clouds: few clouds at 2000 feet AGL
few clouds at 4900 feet AGL
scattered clouds at 20000 feet AGL
Present Weather: no significant weather observed at this time
KDAB 300853Z VRB05KT 10SM FEW020 FEW049 SCT200 24/22 A3011 RMK AO2 SLP196 T02440217 56005

Conditions at: KDAB observed 30 April 2017  07:53 UTC
Temperature: 23.9°C (75°F)
Dewpoint: 21.7°C (71°F) [RH = 88%]
Pressure (altimeter): 30.11 inches Hg (1019.7 mb)
[Sea-level pressure: 1019.6 mb]
Winds: from the SE (140 degrees) at 8 MPH (7 knots; 3.6 m/s)
Visibility: 9 miles (14 km)
Ceiling: at least 12,000 feet AGL
Clouds: few clouds at 2200 feet AGL
scattered clouds at 4000 feet AGL
Present Weather: no significant weather observed at this time
KDAB 300753Z 14007KT 9SM FEW022 SCT040 24/22 A3011 RMK AO2 SLP196 T02390217

Conditions at: KDAB observed 30 April 2017  07:02 UTC
Temperature: 24.4°C (76°F)
Dewpoint: 22.2°C (72°F) [RH = 88%]
Pressure (altimeter): 30.11 inches Hg (1019.7 mb)
Winds: from the ESE (120 degrees) at 7 MPH (6 knots; 3.1 m/s)
Visibility: 10 or more miles (16+ km)
Ceiling: at least 12,000 feet AGL
Clouds: scattered clouds at 2000 feet AGL
scattered clouds at 3700 feet AGL
Present Weather: no significant weather observed at this time
KDAB 300702Z 12006KT 10SM SCT020 SCT037 24/22 A3011 RMK AO2 T02440222

Conditions at: KDAB observed 30 April 2017  06:53 UTC
Temperature: 24.4°C (76°F)
Dewpoint: 22.2°C (72°F) [RH = 88%]
Pressure (altimeter): 30.11 inches Hg (1019.7 mb)
[Sea-level pressure: 1019.7 mb]
Winds: from the ESE (120 degrees) at 8 MPH (7 knots; 3.6 m/s)
Visibility: 10 or more miles (16+ km)
Ceiling: 2600 feet AGL
Clouds: few clouds at 1700 feet AGL
broken clouds at 2600 feet AGL
Present Weather: no significant weather observed at this time
KDAB 300653Z 12007KT 080V150 10SM FEW017 BKN026 24/22 A3011 RMK AO2 SLP197 T02440222

Conditions at: KDAB observed 30 April 2017  06:39 UTC
Temperature: 24.4°C (76°F)
Dewpoint: 22.2°C (72°F) [RH = 88%]
Pressure (altimeter): 30.12 inches Hg (1020.1 mb)
Winds: variable direction winds at 7 MPH (6 knots; 3.1 m/s)
Visibility: 10 or more miles (16+ km)
Ceiling: 2300 feet AGL
Clouds: broken clouds at 2300 feet AGL
broken clouds at 4000 feet AGL
Present Weather: no significant weather observed at this time
KDAB 300639Z VRB06KT 10SM BKN023 BKN040 24/22 A3012 RMK AO2 T02440222

Conditions at: KDAB observed 30 April 2017  05:53 UTC
Temperature: 24.4°C (76°F)
Dewpoint: 22.2°C (72°F) [RH = 88%]
Pressure (altimeter): 30.13 inches Hg (1020.4 mb)
[Sea-level pressure: 1020.1 mb]
Winds: variable direction winds at 7 MPH (6 knots; 3.1 m/s)
Visibility: 10 or more miles (16+ km)
Ceiling: at least 12,000 feet AGL
Clouds: few clouds at 2000 feet AGL
few clouds at 15000 feet AGL
Present Weather: no significant weather observed at this time
KDAB 300553Z VRB06KT 10SM FEW020 FEW150 24/22 A3013 RMK AO2 SLP201 T02440222 10250 20239 58008

Conditions at: KDAB observed 30 April 2017  04:53 UTC
Temperature: 23.9°C (75°F)
Dewpoint: 22.2°C (72°F) [RH = 90%]
Pressure (altimeter): 30.14 inches Hg (1020.7 mb)
[Sea-level pressure: 1020.4 mb]
Winds: variable direction winds at 6 MPH (5 knots; 2.6 m/s)
Visibility: 10 or more miles (16+ km)
Ceiling: at least 12,000 feet AGL
Clouds: few clouds at 2000 feet AGL
scattered clouds at 15000 feet AGL
Present Weather: no significant weather observed at this time
KDAB 300453Z VRB05KT 10SM FEW020 SCT150 24/22 A3014 RMK AO2 SLP204 T02390222 402940233

Conditions at: KDAB observed 30 April 2017  03:53 UTC
Temperature: 23.9°C (75°F)
Dewpoint: 22.2°C (72°F) [RH = 90%]
Pressure (altimeter): 30.15 inches Hg (1021.1 mb)
[Sea-level pressure: 1020.7 mb]
Winds: variable direction winds at 6 MPH (5 knots; 2.6 m/s)
Visibility: 10 or more miles (16+ km)
Ceiling: at least 12,000 feet AGL
Clouds: few clouds at 2000 feet AGL
few clouds at 15000 feet AGL
Present Weather: no significant weather observed at this time
KDAB 300353Z VRB05KT 10SM FEW020 FEW150 24/22 A3015 RMK AO2 SLP207 T02390222

Conditions at: KDAB observed 30 April 2017  02:53 UTC
Temperature: 24.4°C (76°F)
Dewpoint: 22.2°C (72°F) [RH = 88%]
Pressure (altimeter): 30.15 inches Hg (1021.1 mb)
[Sea-level pressure: 1020.9 mb]
Winds: from the ESE (120 degrees) at 8 MPH (7 knots; 3.6 m/s)
Visibility: 10 or more miles (16+ km)
Ceiling: at least 12,000 feet AGL
Clouds: few clouds at 2000 feet AGL
few clouds at 15000 feet AGL
Present Weather: no significant weather observed at this time
KDAB 300253Z 12007KT 090V150 10SM FEW020 FEW150 24/22 A3015 RMK AO2 SLP209 T02440222 51007

Conditions at: KDAB observed 30 April 2017  01:53 UTC
Temperature: 24.4°C (76°F)
Dewpoint: 21.7°C (71°F) [RH = 85%]
Pressure (altimeter): 30.14 inches Hg (1020.7 mb)
[Sea-level pressure: 1020.7 mb]
Winds: from the ESE (110 degrees) at 6 MPH (5 knots; 2.6 m/s)
Visibility: 10 or more miles (16+ km)
Ceiling: at least 12,000 feet AGL
Clouds: few clouds at 2000 feet AGL
Present Weather: no significant weather observed at this time
KDAB 300153Z 11005KT 10SM FEW020 24/22 A3014 RMK AO2 SLP207 T02440217

Conditions at: KDAB observed 30 April 2017  00:53 UTC
Temperature: 24.4°C (76°F)
Dewpoint: 21.7°C (71°F) [RH = 85%]
Pressure (altimeter): 30.14 inches Hg (1020.7 mb)
[Sea-level pressure: 1020.5 mb]
Winds: from the ESE (120 degrees) at 6 MPH (5 knots; 2.6 m/s)
Visibility: 10 or more miles (16+ km)
Ceiling: at least 12,000 feet AGL
Clouds: scattered clouds at 20000 feet AGL
Present Weather: no significant weather observed at this time
KDAB 300053Z 12005KT 10SM SCT200 24/22 A3014 RMK AO2 SLP205 T02440217

Conditions at: KDAB observed 29 April 2017  23:53 UTC
Temperature: 25.0°C (77°F)
Dewpoint: 21.1°C (70°F) [RH = 79%]
Pressure (altimeter): 30.13 inches Hg (1020.4 mb)
[Sea-level pressure: 1020.2 mb]
Winds: from the E (100 degrees) at 6 MPH (5 knots; 2.6 m/s)
gusting to 17 MPH (15 knots; 7.8 m/s)
Visibility: 10 or more miles (16+ km)
Ceiling: at least 12,000 feet AGL
Clouds: few clouds at 2000 feet AGL
few clouds at 15000 feet AGL
scattered clouds at 25000 feet AGL
Present Weather: no significant weather observed at this time
KDAB 292353Z 10005G15KT 10SM FEW020 FEW150 SCT250 25/21 A3013 RMK AO2 SLP202 T02500211 10294 20250 56001

Conditions at: KDAB observed 29 April 2017  22:53 UTC
Temperature: 26.1°C (79°F)
Dewpoint: 21.1°C (70°F) [RH = 74%]
Pressure (altimeter): 30.13 inches Hg (1020.4 mb)
[Sea-level pressure: 1020.3 mb]
Winds: from the ESE (120 degrees) at 10 MPH (9 knots; 4.7 m/s)
gusting to 17 MPH (15 knots; 7.8 m/s)
Visibility: 10 or more miles (16+ km)
Ceiling: at least 12,000 feet AGL
Clouds: few clouds at 3500 feet AGL
scattered clouds at 25000 feet AGL
Present Weather: no significant weather observed at this time
KDAB 292253Z 12009G15KT 100V170 10SM FEW035 SCT250 26/21 A3013 RMK AO2 SLP203 T02610211

Conditions at: KDAB observed 29 April 2017  21:53 UTC
Temperature: 27.2°C (81°F)
Dewpoint: 21.1°C (70°F) [RH = 69%]
Pressure (altimeter): 30.13 inches Hg (1020.4 mb)
[Sea-level pressure: 1020.1 mb]
Winds: from the ESE (110 degrees) at 9 MPH (8 knots; 4.2 m/s)
gusting to 17 MPH (15 knots; 7.8 m/s)
Visibility: 10 or more miles (16+ km)
Ceiling: at least 12,000 feet AGL
Clouds: few clouds at 3500 feet AGL
scattered clouds at 25000 feet AGL
Present Weather: no significant weather observed at this time
KDAB 292153Z 11008G15KT 10SM FEW035 SCT250 27/21 A3013 RMK AO2 SLP201 T02720211

Conditions at: KDAB observed 29 April 2017  20:53 UTC
Temperature: 27.8°C (82°F)
Dewpoint: 20.6°C (69°F) [RH = 65%]
Pressure (altimeter): 30.13 inches Hg (1020.4 mb)
[Sea-level pressure: 1020.3 mb]
Winds: from the E (100 degrees) at 13 MPH (11 knots; 5.7 m/s)
gusting to 22 MPH (19 knots; 9.9 m/s)
Visibility: 10 or more miles (16+ km)
Ceiling: at least 12,000 feet AGL
Clouds: few clouds at 3500 feet AGL
scattered clouds at 25000 feet AGL
Present Weather: no significant weather observed at this time
KDAB 292053Z 10011G19KT 10SM FEW035 SCT250 28/21 A3013 RMK AO2 SLP203 T02780206 56010

Conditions at: KDAB observed 29 April 2017  19:53 UTC
Temperature: 28.9°C (84°F)
Dewpoint: 20.0°C (68°F) [RH = 59%]
Pressure (altimeter): 30.14 inches Hg (1020.7 mb)
[Sea-level pressure: 1020.4 mb]
Winds: from the ESE (110 degrees) at 7 MPH (6 knots; 3.1 m/s)
gusting to 18 MPH (16 knots; 8.3 m/s)
Visibility: 10 or more miles (16+ km)
Ceiling: 25000 feet AGL
Clouds: few clouds at 3500 feet AGL
broken clouds at 25000 feet AGL
Present Weather: no significant weather observed at this time
KDAB 291953Z 11006G16KT 10SM FEW035 BKN250 29/20 A3014 RMK AO2 SLP204 T02890200

Conditions at: KDAB observed 29 April 2017  18:53 UTC
Temperature: 27.8°C (82°F)
Dewpoint: 21.1°C (70°F) [RH = 67%]
Pressure (altimeter): 30.15 inches Hg (1021.1 mb)
[Sea-level pressure: 1021.0 mb]
Winds: from the ESE (110 degrees) at 9 MPH (8 knots; 4.2 m/s)
gusting to 23 MPH (20 knots; 10.4 m/s)
Visibility: 10 or more miles (16+ km)
Ceiling: 25000 feet AGL
Clouds: few clouds at 3000 feet AGL
broken clouds at 25000 feet AGL
Present Weather: no significant weather observed at this time
KDAB 291853Z 11008G20KT 10SM FEW030 BKN250 28/21 A3015 RMK AO2 SLP210 T02780211

Conditions at: KDAB observed 29 April 2017  17:53 UTC
Temperature: 28.3°C (83°F)
Dewpoint: 21.7°C (71°F) [RH = 67%]
Pressure (altimeter): 30.16 inches Hg (1021.4 mb)
[Sea-level pressure: 1021.3 mb]
Winds: from the E (100 degrees) at 14 MPH (12 knots; 6.2 m/s)
gusting to 22 MPH (19 knots; 9.9 m/s)
Visibility: 10 or more miles (16+ km)
Ceiling: 25000 feet AGL
Clouds: few clouds at 2400 feet AGL
broken clouds at 25000 feet AGL
Present Weather: no significant weather observed at this time
KDAB 291753Z 10012G19KT 10SM FEW024 BKN250 28/22 A3016 RMK AO2 SLP213 T02830217 10289 20239 58007

Conditions at: KDAB observed 29 April 2017  16:53 UTC
Temperature: 28.3°C (83°F)
Dewpoint: 21.7°C (71°F) [RH = 67%]
Pressure (altimeter): 30.18 inches Hg (1022.1 mb)
[Sea-level pressure: 1021.9 mb]
Winds: from the SE (140 degrees) at 9 MPH (8 knots; 4.2 m/s)
gusting to 20 MPH (17 knots; 8.8 m/s)
Visibility: 10 or more miles (16+ km)
Ceiling: 25000 feet AGL
Clouds: few clouds at 2400 feet AGL
broken clouds at 25000 feet AGL
Present Weather: no significant weather observed at this time
KDAB 291653Z 14008G17KT 10SM FEW024 BKN250 28/22 A3018 RMK AO2 SLP219 T02830217

Conditions at: KDAB observed 29 April 2017  15:53 UTC
Temperature: 27.8°C (82°F)
Dewpoint: 22.2°C (72°F) [RH = 72%]
Pressure (altimeter): 30.19 inches Hg (1022.4 mb)
[Sea-level pressure: 1022.2 mb]
Winds: from the E (100 degrees) at 14 MPH (12 knots; 6.2 m/s)
gusting to 23 MPH (20 knots; 10.4 m/s)
Visibility: 10 or more miles (16+ km)
Ceiling: 25000 feet AGL
Clouds: few clouds at 2200 feet AGL
scattered clouds at 3200 feet AGL
broken clouds at 25000 feet AGL
Present Weather: no significant weather observed at this time
KDAB 291553Z 10012G20KT 10SM FEW022 SCT032 BKN250 28/22 A3019 RMK AO2 SLP222 T02780222

Conditions at: KDAB observed 29 April 2017  14:53 UTC
Temperature: 27.2°C (81°F)
Dewpoint: 22.2°C (72°F) [RH = 74%]
Pressure (altimeter): 30.18 inches Hg (1022.1 mb)
[Sea-level pressure: 1022.0 mb]
Winds: from the ESE (110 degrees) at 13 MPH (11 knots; 5.7 m/s)
gusting to 21 MPH (18 knots; 9.4 m/s)
Visibility: 10 or more miles (16+ km)
Ceiling: 25000 feet AGL
Clouds: few clouds at 2100 feet AGL
scattered clouds at 3100 feet AGL
broken clouds at 25000 feet AGL
Present Weather: no significant weather observed at this time
KDAB 291453Z 11011G18KT 10SM FEW021 SCT031 BKN250 27/22 A3018 RMK AO2 SLP220 T02720222 53009

Conditions at: KDAB observed 29 April 2017  14:16 UTC
Temperature: 27.2°C (81°F)
Dewpoint: 21.7°C (71°F) [RH = 72%]
Pressure (altimeter): 30.18 inches Hg (1022.1 mb)
Winds: from the SSE (150 degrees) at 12 MPH (10 knots; 5.2 m/s)
gusting to 17 MPH (15 knots; 7.8 m/s)
Visibility: 10 or more miles (16+ km)
Ceiling: 25000 feet AGL
Clouds: scattered clouds at 2300 feet AGL
scattered clouds at 3200 feet AGL
broken clouds at 25000 feet AGL
Present Weather: no significant weather observed at this time
KDAB 291416Z 15010G15KT 10SM SCT023 SCT032 BKN250 27/22 A3018 RMK AO2 T02720217

Conditions at: KDAB observed 29 April 2017  13:53 UTC
Temperature: 26.7°C (80°F)
Dewpoint: 21.7°C (71°F) [RH = 74%]
Pressure (altimeter): 30.17 inches Hg (1021.8 mb)
[Sea-level pressure: 1021.6 mb]
Winds: from the S (170 degrees) at 10 MPH (9 knots; 4.7 m/s)
Visibility: 10 or more miles (16+ km)
Ceiling: 2800 feet AGL
Clouds: scattered clouds at 2100 feet AGL
broken clouds at 2800 feet AGL
broken clouds at 25000 feet AGL
Present Weather: no significant weather observed at this time
KDAB 291353Z 17009KT 10SM SCT021 BKN028 BKN250 27/22 A3017 RMK AO2 SLP216 T02670217

Conditions at: KDAB observed 29 April 2017  13:23 UTC
Temperature: 25.6°C (78°F)
Dewpoint: 21.7°C (71°F) [RH = 79%]
Pressure (altimeter): 30.17 inches Hg (1021.8 mb)
Winds: from the SSE (160 degrees) at 9 MPH (8 knots; 4.2 m/s)
Visibility: 10 or more miles (16+ km)
Ceiling: 2200 feet AGL
Clouds: scattered clouds at 1400 feet AGL
broken clouds at 2200 feet AGL
broken clouds at 25000 feet AGL
Present Weather: no significant weather observed at this time
KDAB 291323Z 16008KT 10SM SCT014 BKN022 BKN250 26/22 A3017 RMK AO2 T02560217

Conditions at: KDAB observed 29 April 2017  12:53 UTC
Temperature: 24.4°C (76°F)
Dewpoint: 21.7°C (71°F) [RH = 85%]
Pressure (altimeter): 30.17 inches Hg (1021.8 mb)
[Sea-level pressure: 1021.4 mb]
Winds: from the SSE (150 degrees) at 7 MPH (6 knots; 3.1 m/s)
Visibility: 10 or more miles (16+ km)
Ceiling: 25000 feet AGL
Clouds: scattered clouds at 1500 feet AGL
broken clouds at 25000 feet AGL
Present Weather: no significant weather observed at this time
KDAB 291253Z 15006KT 10SM SCT015 BKN250 24/22 A3017 RMK AO2 SLP214 T02440217

Conditions at: KDAB observed 29 April 2017  11:53 UTC
Temperature: 23.9°C (75°F)
Dewpoint: 22.8°C (73°F) [RH = 94%]
Pressure (altimeter): 30.16 inches Hg (1021.4 mb)
[Sea-level pressure: 1021.1 mb]
Winds: from the SSE (160 degrees) at 7 MPH (6 knots; 3.1 m/s)
Visibility: 9 miles (14 km)
Ceiling: 25000 feet AGL
Clouds: scattered clouds at 1500 feet AGL
broken clouds at 25000 feet AGL
Present Weather: no significant weather observed at this time
KDAB 291153Z 16006KT 9SM SCT015 BKN250 24/23 A3016 RMK AO2 SLP211 T02390228 10250 20233 53014

Conditions at: KDAB observed 29 April 2017  10:53 UTC
Temperature: 23.9°C (75°F)
Dewpoint: 23.3°C (74°F) [RH = 96%]
Pressure (altimeter): 30.14 inches Hg (1020.7 mb)
[Sea-level pressure: 1020.6 mb]
Winds: from the SE (140 degrees) at 3 MPH (3 knots; 1.6 m/s)
Visibility: 8 miles (13 km)
Ceiling: 17000 feet AGL
Clouds: few clouds at 1400 feet AGL
scattered clouds at 2000 feet AGL
broken clouds at 17000 feet AGL
Present Weather: no significant weather observed at this time
KDAB 291053Z 14003KT 8SM FEW014 SCT020 BKN170 24/23 A3014 RMK AO2 SLP206 T02390233

Conditions at: KDAB observed 29 April 2017  09:53 UTC
Temperature: 23.9°C (75°F)
Dewpoint: 23.3°C (74°F) [RH = 96%]
Pressure (altimeter): 30.13 inches Hg (1020.4 mb)
[Sea-level pressure: 1020.1 mb]
Winds: from the SSE (150 degrees) at 6 MPH (5 knots; 2.6 m/s)
Visibility: 10 or more miles (16+ km)
Ceiling: at least 12,000 feet AGL
Clouds: few clouds at 1200 feet AGL
scattered clouds at 1700 feet AGL
Present Weather: no significant weather observed at this time
KDAB 290953Z 15005KT 10SM FEW012 SCT017 24/23 A3013 RMK AO2 SLP201 T02390233

Conditions at: KDAB observed 29 April 2017  08:53 UTC
Temperature: 23.3°C (74°F)
Dewpoint: 22.8°C (73°F) [RH = 97%]
Pressure (altimeter): 30.11 inches Hg (1019.7 mb)
[Sea-level pressure: 1019.7 mb]
Winds: from the SSE (150 degrees) at 3 MPH (3 knots; 1.6 m/s)
Visibility: 10 or more miles (16+ km)
Ceiling: at least 12,000 feet AGL
Clouds: few clouds at 1500 feet AGL
scattered clouds at 2300 feet AGL
Present Weather: no significant weather observed at this time
KDAB 290853Z 15003KT 10SM FEW015 SCT023 23/23 A3011 RMK AO2 SLP197 T02330228 58004

Conditions at: KDAB observed 29 April 2017  08:42 UTC
Temperature: 23.9°C (75°F)
Dewpoint: 22.8°C (73°F) [RH = 94%]
Pressure (altimeter): 30.11 inches Hg (1019.7 mb)
Winds: from the ESE (110 degrees) at 3 MPH (3 knots; 1.6 m/s)
Visibility: 10 or more miles (16+ km)
Ceiling: at least 12,000 feet AGL
Clouds: scattered clouds at 1300 feet AGL
scattered clouds at 2300 feet AGL
Present Weather: no significant weather observed at this time
KDAB 290842Z 11003KT 10SM SCT013 SCT023 24/23 A3011 RMK AO2 T02390228

Conditions at: KDAB observed 29 April 2017  07:53 UTC
Temperature: 23.9°C (75°F)
Dewpoint: 22.8°C (73°F) [RH = 94%]
Pressure (altimeter): 30.12 inches Hg (1020.1 mb)
[Sea-level pressure: 1019.8 mb]
Winds: from the SSE (150 degrees) at 5 MPH (4 knots; 2.1 m/s)
Visibility: 10 or more miles (16+ km)
Ceiling: 2300 feet AGL
Clouds: scattered clouds at 1300 feet AGL
broken clouds at 2300 feet AGL
Present Weather: no significant weather observed at this time
KDAB 290753Z 15004KT 10SM SCT013 BKN023 24/23 A3012 RMK AO2 SLP198 T02390228

Conditions at: KDAB observed 29 April 2017  06:53 UTC
Temperature: 24.4°C (76°F)
Dewpoint: 23.3°C (74°F) [RH = 94%]
Pressure (altimeter): 30.13 inches Hg (1020.4 mb)
[Sea-level pressure: 1020.1 mb]
Winds: from the S (170 degrees) at 7 MPH (6 knots; 3.1 m/s)
Visibility: 10 or more miles (16+ km)
Ceiling: 2100 feet AGL
Clouds: scattered clouds at 1300 feet AGL
broken clouds at 2100 feet AGL
broken clouds at 2500 feet AGL
Present Weather: no significant weather observed at this time
KDAB 290653Z 17006KT 10SM SCT013 BKN021 BKN025 24/23 A3013 RMK AO2 SLP201 T02440233

Conditions at: KDAB observed 29 April 2017  06:51 UTC
Temperature: 24.0°C (75°F)
Dewpoint: 23.0°C (73°F) [RH = 94%]
Pressure (altimeter): 30.13 inches Hg (1020.4 mb)
Winds: from the S (180 degrees) at 6 MPH (5 knots; 2.6 m/s)
Visibility: 10 or more miles (16+ km)
Ceiling: 2100 feet AGL
Clouds: scattered clouds at 1300 feet AGL
broken clouds at 2100 feet AGL
broken clouds at 2500 feet AGL
Present Weather: no significant weather observed at this time
KDAB 290651Z 18005KT 10SM SCT013 BKN021 BKN025 24/23 A3013 RMK AO2

Conditions at: KDAB observed 29 April 2017  05:53 UTC
Temperature: 25.0°C (77°F)
Dewpoint: 23.3°C (74°F) [RH = 90%]
Pressure (altimeter): 30.13 inches Hg (1020.4 mb)
[Sea-level pressure: 1020.2 mb]
Winds: from the SSE (160 degrees) at 7 MPH (6 knots; 3.1 m/s)
Visibility: 10 or more miles (16+ km)
Ceiling: 1300 feet AGL
Clouds: broken clouds at 1300 feet AGL
broken clouds at 2100 feet AGL
Present Weather: no significant weather observed at this time
KDAB 290553Z 16006KT 10SM BKN013 BKN021 25/23 A3013 RMK AO2 SLP202 T02500233 10261 20239 50000

Conditions at: KDAB observed 29 April 2017  04:53 UTC
Temperature: 24.4°C (76°F)
Dewpoint: 23.3°C (74°F) [RH = 94%]
Pressure (altimeter): 30.14 inches Hg (1020.7 mb)
[Sea-level pressure: 1020.4 mb]
Winds: from the SE (140 degrees) at 8 MPH (7 knots; 3.6 m/s)
Visibility: 10 or more miles (16+ km)
Ceiling: 1300 feet AGL
Clouds: broken clouds at 1300 feet AGL
broken clouds at 1800 feet AGL
Present Weather: no significant weather observed at this time
KDAB 290453Z 14007KT 10SM BKN013 BKN018 24/23 A3014 RMK AO2 SLP204 T02440233 403280217

Conditions at: KDAB observed 29 April 2017  03:53 UTC
Temperature: 23.9°C (75°F)
Dewpoint: 23.3°C (74°F) [RH = 96%]
Pressure (altimeter): 30.13 inches Hg (1020.4 mb)
[Sea-level pressure: 1020.2 mb]
Winds: variable direction winds at 3 MPH (3 knots; 1.6 m/s)
Visibility: 10 or more miles (16+ km)
Ceiling: 1300 feet AGL
Clouds: broken clouds at 1300 feet AGL
Present Weather: no significant weather observed at this time
KDAB 290353Z VRB03KT 10SM BKN013 24/23 A3013 RMK AO2 SLP202 T02390233

Conditions at: KDAB observed 29 April 2017  03:50 UTC
Temperature: 24.0°C (75°F)
Dewpoint: 23.0°C (73°F) [RH = 94%]
Pressure (altimeter): 30.13 inches Hg (1020.4 mb)
Winds: calm
Visibility: 10 or more miles (16+ km)
Ceiling: 1300 feet AGL
Clouds: broken clouds at 1300 feet AGL
Present Weather: no significant weather observed at this time
KDAB 290350Z 00000KT 10SM BKN013 24/23 A3013 RMK AO2

Conditions at: KDAB observed 29 April 2017  02:53 UTC
Temperature: 24.4°C (76°F)
Dewpoint: 23.3°C (74°F) [RH = 94%]
Pressure (altimeter): 30.13 inches Hg (1020.4 mb)
[Sea-level pressure: 1020.2 mb]
Winds: calm
Visibility: 10 or more miles (16+ km)
Ceiling: at least 12,000 feet AGL
Clouds: few clouds at 1100 feet AGL
Present Weather: no significant weather observed at this time
KDAB 290253Z 00000KT 10SM FEW011 24/23 A3013 RMK AO2 SLP202 T02440233 51018

Conditions at: KDAB observed 29 April 2017  01:53 UTC
Temperature: 24.4°C (76°F)
Dewpoint: 23.3°C (74°F) [RH = 94%]
Pressure (altimeter): 30.12 inches Hg (1020.1 mb)
[Sea-level pressure: 1019.7 mb]
Winds: from the SE (130 degrees) at 6 MPH (5 knots; 2.6 m/s)
Visibility: 9 miles (14 km)
Ceiling: at least 12,000 feet AGL
Clouds: scattered clouds at 1200 feet AGL
Present Weather: no significant weather observed at this time
KDAB 290153Z 13005KT 9SM SCT012 24/23 A3012 RMK AO2 SLP197 T02440233

Conditions at: KDAB observed 29 April 2017  00:53 UTC
Temperature: 25.0°C (77°F)
Dewpoint: 23.3°C (74°F) [RH = 90%]
Pressure (altimeter): 30.10 inches Hg (1019.4 mb)
[Sea-level pressure: 1019.0 mb]
Winds: variable direction winds at 5 MPH (4 knots; 2.1 m/s)
Visibility: 10 or more miles (16+ km)
Ceiling: at least 12,000 feet AGL
Clouds: few clouds at 1500 feet AGL
Present Weather: no significant weather observed at this time
KDAB 290053Z VRB04KT 10SM FEW015 25/23 A3010 RMK AO2 SLP190 T02500233

Conditions at: KDAB observed 28 April 2017  23:53 UTC
Temperature: 26.1°C (79°F)
Dewpoint: 22.8°C (73°F) [RH = 82%]
Pressure (altimeter): 30.08 inches Hg (1018.7 mb)
[Sea-level pressure: 1018.5 mb]
Winds: from the ESE (120 degrees) at 5 MPH (4 knots; 2.1 m/s)
Visibility: 10 or more miles (16+ km)
Ceiling: at least 12,000 feet AGL
Clouds: scattered clouds at 25000 feet AGL
Present Weather: no significant weather observed at this time
KDAB 282353Z 12004KT 10SM SCT250 26/23 A3008 RMK AO2 SLP185 T02610228 10311 20261 53008

Conditions at: KDAB observed 28 April 2017  22:53 UTC
Temperature: 27.8°C (82°F)
Dewpoint: 22.8°C (73°F) [RH = 74%]
Pressure (altimeter): 30.07 inches Hg (1018.4 mb)
[Sea-level pressure: 1018.1 mb]
Winds: from the SE (130 degrees) at 9 MPH (8 knots; 4.2 m/s)
Visibility: 10 or more miles (16+ km)
Ceiling: at least 12,000 feet AGL
Clouds: few clouds at 3700 feet AGL
few clouds at 25000 feet AGL
Present Weather: no significant weather observed at this time
KDAB 282253Z 13008KT 090V160 10SM FEW037 FEW250 28/23 A3007 RMK AO2 SLP181 T02780228

Conditions at: KDAB observed 28 April 2017  21:53 UTC
Temperature: 28.9°C (84°F)
Dewpoint: 22.2°C (72°F) [RH = 67%]
Pressure (altimeter): 30.06 inches Hg (1018.0 mb)
[Sea-level pressure: 1018.0 mb]
Winds: from the ESE (120 degrees) at 8 MPH (7 knots; 3.6 m/s)
gusting to 20 MPH (17 knots; 8.8 m/s)
Visibility: 10 or more miles (16+ km)
Ceiling: at least 12,000 feet AGL
Clouds: few clouds at 3700 feet AGL
few clouds at 25000 feet AGL
Present Weather: no significant weather observed at this time
KDAB 282153Z 12007G17KT 100V160 10SM FEW037 FEW250 29/22 A3006 RMK AO2 SLP180 T02890222

Conditions at: KDAB observed 28 April 2017  20:53 UTC
Temperature: 30.0°C (86°F)
Dewpoint: 22.2°C (72°F) [RH = 63%]
Pressure (altimeter): 30.06 inches Hg (1018.0 mb)
[Sea-level pressure: 1017.7 mb]
Winds: from the E (100 degrees) at 7 MPH (6 knots; 3.1 m/s)
gusting to 20 MPH (17 knots; 8.8 m/s)
Visibility: 10 or more miles (16+ km)
Ceiling: at least 12,000 feet AGL
Clouds: few clouds at 3700 feet AGL
few clouds at 25000 feet AGL
Present Weather: no significant weather observed at this time
KDAB 282053Z 10006G17KT 10SM FEW037 FEW250 30/22 A3006 RMK AO2 SLP177 T03000222 56008

Conditions at: KDAB observed 28 April 2017  19:53 UTC
Temperature: 30.6°C (87°F)
Dewpoint: 21.7°C (71°F) [RH = 59%]
Pressure (altimeter): 30.06 inches Hg (1018.0 mb)
[Sea-level pressure: 1017.8 mb]
Winds: from the ESE (110 degrees) at 10 MPH (9 knots; 4.7 m/s)
gusting to 22 MPH (19 knots; 9.9 m/s)
Visibility: 10 or more miles (16+ km)
Ceiling: at least 12,000 feet AGL
Clouds: few clouds at 3700 feet AGL
few clouds at 25000 feet AGL
Present Weather: no significant weather observed at this time
KDAB 281953Z 11009G19KT 10SM FEW037 FEW250 31/22 A3006 RMK AO2 SLP178 T03060217

Conditions at: KDAB observed 28 April 2017  18:53 UTC
Temperature: 30.6°C (87°F)
Dewpoint: 22.8°C (73°F) [RH = 63%]
Pressure (altimeter): 30.07 inches Hg (1018.4 mb)
[Sea-level pressure: 1018.2 mb]
Winds: from the E (100 degrees) at 13 MPH (11 knots; 5.7 m/s)
gusting to 22 MPH (19 knots; 9.9 m/s)
Visibility: 10 or more miles (16+ km)
Ceiling: at least 12,000 feet AGL
Clouds: few clouds at 3700 feet AGL
scattered clouds at 25000 feet AGL
Present Weather: no significant weather observed at this time
KDAB 281853Z 10011G19KT 10SM FEW037 SCT250 31/23 A3007 RMK AO2 SLP182 T03060228

Conditions at: KDAB observed 28 April 2017  17:53 UTC
Temperature: 31.1°C (88°F)
Dewpoint: 23.3°C (74°F) [RH = 63%]
Pressure (altimeter): 30.08 inches Hg (1018.7 mb)
[Sea-level pressure: 1018.5 mb]
Winds: from the E (90 degrees) at 14 MPH (12 knots; 6.2 m/s)
gusting to 22 MPH (19 knots; 9.9 m/s)
Visibility: 10 or more miles (16+ km)
Ceiling: at least 12,000 feet AGL
Clouds: few clouds at 4500 feet AGL
scattered clouds at 5500 feet AGL
scattered clouds at 25000 feet AGL
Present Weather: no significant weather observed at this time
KDAB 281753Z 09012G19KT 10SM FEW045 SCT055 SCT250 31/23 A3008 RMK AO2 SLP185 T03110233 10328 20222 58004

Conditions at: KDAB observed 28 April 2017  16:53 UTC
Temperature: 31.1°C (88°F)
Dewpoint: 23.3°C (74°F) [RH = 63%]
Pressure (altimeter): 30.08 inches Hg (1018.7 mb)
[Sea-level pressure: 1018.6 mb]
Winds: from the ESE (120 degrees) at 7 MPH (6 knots; 3.1 m/s)
Visibility: 10 or more miles (16+ km)
Ceiling: at least 12,000 feet AGL
Clouds: scattered clouds at 4300 feet AGL
Present Weather: no significant weather observed at this time
KDAB 281653Z 12006KT 10SM SCT043 31/23 A3008 RMK AO2 SLP186 T03110233

Conditions at: KDAB observed 28 April 2017  15:53 UTC
Temperature: 30.0°C (86°F)
Dewpoint: 21.7°C (71°F) [RH = 61%]
Pressure (altimeter): 30.09 inches Hg (1019.0 mb)
[Sea-level pressure: 1019.0 mb]
Winds: from the SSE (160 degrees) at 10 MPH (9 knots; 4.7 m/s)
Visibility: 10 or more miles (16+ km)
Ceiling: at least 12,000 feet AGL
Clouds: scattered clouds at 3400 feet AGL
Present Weather: no significant weather observed at this time
KDAB 281553Z 16009KT 10SM SCT034 30/22 A3009 RMK AO2 SLP190 T03000217